Time;durP1;ratioP1;P1;durP2;ratioP2;P2;SDS_P1;SDS_P2;PMS_P1;PMS_P2;Temp;Humidity;BMP_temperature;BMP_pressure;BME280_temperature;BME280_humidity;BME280_pressure;Samples;Min_cycle;Max_cycle;Signal;HPM_P1;HPM_P2
2023/08/28 00:00:40;;;;;;;2.87;2.00;;;12.80;99.90;;;;;;2063021;28;20624;-67
2023/08/28 00:01:42;;;;;;;3.47;2.00;;;12.90;99.90;;;;;;2054979;28;20247;-67
2023/08/28 00:02:43;;;;;;;3.15;1.80;;;13.00;99.90;;;;;;2060213;28;20694;-67
2023/08/28 00:03:44;;;;;;;3.97;2.10;;;13.00;99.90;;;;;;2062560;28;20230;-67
2023/08/28 00:04:45;;;;;;;2.20;1.90;;;13.10;99.90;;;;;;2062563;28;20234;-66
2023/08/28 00:05:45;;;;;;;3.47;1.83;;;13.20;99.90;;;;;;2063168;28;20320;-67
2023/08/28 00:06:46;;;;;;;2.23;1.90;;;13.20;99.90;;;;;;2063552;28;20226;-65
2023/08/28 00:07:47;;;;;;;2.87;2.03;;;13.20;99.90;;;;;;2062998;28;20222;-67
2023/08/28 00:08:47;;;;;;;4.47;1.97;;;13.20;99.90;;;;;;2063305;28;20229;-65
2023/08/28 00:09:48;;;;;;;3.07;2.10;;;13.20;99.90;;;;;;2055461;28;20254;-66
2023/08/28 00:10:53;;;;;;;2.47;1.77;;;13.20;99.90;;;;;;2055416;28;20231;-66
2023/08/28 00:11:54;;;;;;;4.53;2.47;;;13.30;99.90;;;;;;2055882;28;20234;-66
2023/08/28 00:12:55;;;;;;;4.13;2.30;;;13.40;99.90;;;;;;2067096;28;20234;-66
2023/08/28 00:13:56;;;;;;;2.47;2.13;;;13.40;99.90;;;;;;2066722;28;20234;-68
2023/08/28 00:14:56;;;;;;;3.67;2.50;;;13.40;99.90;;;;;;2063843;28;20280;-65
2023/08/28 00:15:57;;;;;;;2.60;1.73;;;13.30;99.90;;;;;;2071512;28;20736;-65
2023/08/28 00:16:58;;;;;;;3.25;2.20;;;13.40;99.90;;;;;;2072211;28;20237;-67
2023/08/28 00:17:59;;;;;;;3.17;2.23;;;13.30;99.90;;;;;;2065389;28;21060;-67
2023/08/28 00:18:59;;;;;;;2.57;2.00;;;13.30;99.90;;;;;;2063370;28;20234;-65
2023/08/28 00:20:00;;;;;;;3.80;2.33;;;13.30;99.90;;;;;;2063915;28;20249;-66
2023/08/28 00:21:02;;;;;;;3.20;2.27;;;13.30;99.90;;;;;;2063588;28;20284;-65
2023/08/28 00:22:03;;;;;;;2.60;2.30;;;13.30;99.90;;;;;;2063189;28;20223;-67
2023/08/28 00:23:04;;;;;;;4.03;2.73;;;13.30;99.90;;;;;;2054093;28;20268;-67
2023/08/28 00:24:06;;;;;;;3.42;2.13;;;13.40;99.90;;;;;;2059295;28;20726;-66
2023/08/28 00:25:07;;;;;;;2.50;2.10;;;13.40;99.90;;;;;;2063444;28;20209;-66
2023/08/28 00:26:08;;;;;;;3.30;2.40;;;13.30;99.90;;;;;;2063933;28;20190;-67
2023/08/28 00:27:08;;;;;;;3.63;2.00;;;13.20;99.90;;;;;;2062316;28;20203;-66
2023/08/28 00:28:09;;;;;;;2.93;2.40;;;13.20;99.90;;;;;;2063086;28;20193;-68
2023/08/28 00:29:10;;;;;;;3.60;2.40;;;13.10;99.90;;;;;;2063107;28;20198;-66
2023/08/28 00:30:11;;;;;;;4.07;2.40;;;13.10;99.90;;;;;;2064126;28;20195;-66
2023/08/28 00:31:11;;;;;;;4.03;2.20;;;13.00;99.90;;;;;;2064688;28;20220;-66
2023/08/28 00:32:12;;;;;;;3.37;2.27;;;13.00;99.90;;;;;;2057755;28;20209;-67
2023/08/28 00:33:13;;;;;;;2.70;2.50;;;13.00;99.90;;;;;;2063240;28;20205;-66
2023/08/28 00:34:13;;;;;;;2.87;2.43;;;13.00;99.90;;;;;;2064066;28;20186;-66
2023/08/28 00:35:14;;;;;;;2.93;2.10;;;12.90;99.90;;;;;;2063529;28;20186;-65
2023/08/28 00:36:15;;;;;;;4.20;2.30;;;12.90;99.90;;;;;;2063675;28;20693;-67
2023/08/28 00:37:16;;;;;;;3.67;2.40;;;12.90;99.90;;;;;;2067358;28;20201;-67
2023/08/28 00:38:17;;;;;;;4.67;2.17;;;12.70;99.90;;;;;;2071205;28;20182;-66
2023/08/28 00:39:17;;;;;;;3.43;2.30;;;12.70;99.90;;;;;;2062182;28;20205;-67
2023/08/28 00:40:18;;;;;;;2.87;2.03;;;12.70;99.90;;;;;;2046784;28;20630;-66
2023/08/28 00:41:19;;;;;;;3.80;2.07;;;12.70;99.90;;;;;;2054770;28;20262;-67
2023/08/28 00:42:21;;;;;;;2.70;2.40;;;12.70;99.90;;;;;;2063170;28;20175;-67
2023/08/28 00:43:22;;;;;;;2.40;2.00;;;12.60;99.90;;;;;;2065153;28;21697;-67
2023/08/28 00:44:23;;;;;;;3.47;2.20;;;12.60;99.90;;;;;;2065904;28;20581;-66
2023/08/28 00:45:25;;;;;;;2.95;2.30;;;12.60;99.90;;;;;;2065620;28;20316;-66
2023/08/28 00:46:26;;;;;;;3.45;2.40;;;12.60;99.90;;;;;;2064001;28;20232;-67
2023/08/28 00:47:26;;;;;;;2.53;2.30;;;12.70;99.90;;;;;;2063775;28;20718;-66
2023/08/28 00:48:28;;;;;;;2.83;2.27;;;12.70;99.90;;;;;;2063892;28;20257;-66
2023/08/28 00:49:29;;;;;;;3.13;2.83;;;12.70;99.90;;;;;;2063117;28;20321;-67
2023/08/28 00:50:30;;;;;;;2.90;2.30;;;12.70;99.90;;;;;;2062932;28;20332;-67
2023/08/28 00:51:31;;;;;;;2.80;2.40;;;12.70;99.90;;;;;;2062460;28;20234;-67
2023/08/28 00:52:32;;;;;;;3.13;2.37;;;12.80;99.90;;;;;;2058384;28;20283;-66
2023/08/28 00:53:35;;;;;;;2.58;2.22;;;12.80;99.90;;;;;;2047671;28;20234;-66
2023/08/28 00:54:40;;;;;;;3.60;2.35;;;12.90;99.90;;;;;;2058124;28;20233;-67
2023/08/28 00:55:43;;;;;;;2.50;2.30;;;13.00;99.90;;;;;;2057432;28;20247;-67
2023/08/28 00:56:44;;;;;;;2.55;2.35;;;13.00;99.90;;;;;;2049183;28;20740;-66
2023/08/28 00:57:44;;;;;;;3.27;2.40;;;13.00;99.90;;;;;;2052283;28;20284;-66
2023/08/28 00:58:45;;;;;;;2.53;2.23;;;12.90;99.90;;;;;;2057416;28;20903;-67
2023/08/28 00:59:46;;;;;;;3.83;2.10;;;12.90;99.90;;;;;;2061704;28;20608;-66
2023/08/28 01:00:47;;;;;;;2.70;2.40;;;12.90;99.90;;;;;;2057287;28;20234;-68
2023/08/28 01:01:47;;;;;;;2.60;2.40;;;13.00;99.90;;;;;;2048245;28;20223;-67
2023/08/28 01:02:49;;;;;;;3.00;2.37;;;12.90;99.90;;;;;;2045900;28;20258;-67
2023/08/28 01:03:50;;;;;;;2.15;1.95;;;13.00;99.90;;;;;;2054106;28;20235;-68
2023/08/28 01:04:52;;;;;;;4.18;2.80;;;13.00;99.90;;;;;;2062682;28;20379;-67
2023/08/28 01:06:09;;;;;;;4.65;2.38;;;13.00;99.90;;;;;;2060314;28;20229;-66
2023/08/28 01:07:22;;;;;;;3.30;2.35;;;13.10;99.90;;;;;;2059476;28;20309;-67
2023/08/28 01:08:59;;;;;;;2.88;2.30;;;13.10;99.90;;;;;;2051918;28;20409;-67
2023/08/28 01:10:27;;;;;;;3.53;2.05;;;13.10;99.90;;;;;;2059371;28;20283;-66
2023/08/28 01:11:48;;;;;;;3.75;2.40;;;13.00;99.90;;;;;;2048643;28;20231;-66
2023/08/28 01:13:11;;;;;;;2.88;2.30;;;12.90;99.90;;;;;;2050893;28;20283;-66
2023/08/28 01:14:25;;;;;;;3.00;2.25;;;13.00;99.90;;;;;;2056907;28;20314;-66
2023/08/28 01:15:27;;;;;;;5.07;2.60;;;13.00;99.90;;;;;;2066867;28;20228;-66
2023/08/28 01:16:29;;;;;;;3.45;2.60;;;13.00;99.90;;;;;;2056518;28;20238;-66
2023/08/28 01:17:31;;;;;;;4.10;2.45;;;13.00;99.90;;;;;;2056701;28;20241;-66
2023/08/28 01:18:33;;;;;;;3.17;2.80;;;13.10;99.90;;;;;;2064274;28;20225;-66
2023/08/28 01:19:37;;;;;;;3.80;2.45;;;13.10;99.90;;;;;;2055155;28;20234;-66
2023/08/28 01:20:39;;;;;;;3.65;2.63;;;13.00;99.90;;;;;;2056078;28;20282;-66
2023/08/28 01:21:44;;;;;;;4.15;2.50;;;13.00;99.90;;;;;;2054062;28;20661;-66
2023/08/28 01:22:59;;;;;;;6.13;2.40;;;13.00;99.90;;;;;;2047049;28;20747;-66
2023/08/28 01:24:04;;;;;;;6.28;2.42;;;12.90;99.90;;;;;;2054710;28;20645;-66
2023/08/28 01:25:12;;;;;;;4.43;2.17;;;13.00;99.90;;;;;;2049395;28;20238;-66
2023/08/28 01:26:13;;;;;;;3.20;2.53;;;12.90;99.90;;;;;;2061524;28;20218;-66
2023/08/28 01:27:14;;;;;;;3.08;2.33;;;12.90;99.90;;;;;;2060129;28;20200;-66
2023/08/28 01:28:15;;;;;;;3.25;2.50;;;12.90;99.90;;;;;;2053542;28;20683;-66
2023/08/28 01:29:15;;;;;;;3.73;2.30;;;12.80;99.90;;;;;;2049666;28;20234;-66
2023/08/28 01:30:17;;;;;;;4.83;2.50;;;12.80;99.90;;;;;;2062228;28;20186;-66
2023/08/28 01:31:17;;;;;;;3.65;2.15;;;12.80;99.90;;;;;;2061723;28;20209;-67
2023/08/28 01:32:18;;;;;;;3.43;2.53;;;12.80;99.90;;;;;;2062364;28;20512;-67
2023/08/28 01:33:19;;;;;;;3.80;2.50;;;12.80;99.90;;;;;;2061609;28;20182;-67
2023/08/28 01:34:20;;;;;;;3.28;2.50;;;12.70;99.90;;;;;;2053139;28;20640;-67
2023/08/28 01:35:27;;;;;;;4.47;2.47;;;12.60;99.90;;;;;;2061612;28;20257;-66
2023/08/28 01:36:50;;;;;;;4.85;2.83;;;12.70;99.90;;;;;;2059555;28;20313;-67
2023/08/28 01:38:20;;;;;;;2.63;2.40;;;12.70;99.90;;;;;;2048751;28;20227;-67
2023/08/28 01:39:32;;;;;;;3.67;2.67;;;12.70;99.90;;;;;;2051549;28;20288;-67
2023/08/28 01:41:06;;;;;;;4.47;2.53;;;12.60;99.90;;;;;;2057488;28;20313;-67
2023/08/28 01:42:09;;;;;;;3.40;2.58;;;12.70;99.90;;;;;;2056139;28;20284;-67
2023/08/28 01:43:13;;;;;;;3.53;2.50;;;12.70;99.90;;;;;;2056498;28;20666;-67
2023/08/28 01:44:16;;;;;;;2.80;2.60;;;12.70;99.90;;;;;;2064078;28;20194;-67
2023/08/28 01:45:18;;;;;;;3.90;2.70;;;12.80;99.90;;;;;;2061822;28;20182;-67
2023/08/28 01:46:19;;;;;;;2.53;2.28;;;12.80;99.90;;;;;;2061414;28;20711;-67
2023/08/28 01:47:24;;;;;;;3.75;2.65;;;12.80;99.90;;;;;;2055444;28;20301;-67
2023/08/28 01:48:28;;;;;;;2.92;2.50;;;12.80;99.90;;;;;;2053195;28;20238;-67
2023/08/28 01:49:32;;;;;;;3.03;2.30;;;12.70;99.90;;;;;;2065384;28;20229;-67
2023/08/28 01:50:33;;;;;;;5.38;2.78;;;12.70;99.90;;;;;;2069072;28;20669;-67
2023/08/28 01:51:34;;;;;;;2.55;2.35;;;12.70;99.90;;;;;;2051896;28;20318;-67
2023/08/28 01:52:34;;;;;;;4.03;2.80;;;12.70;99.90;;;;;;2043525;28;20227;-66
2023/08/28 01:53:35;;;;;;;4.20;2.63;;;12.70;99.90;;;;;;2061570;28;20233;-67
2023/08/28 01:54:36;;;;;;;3.70;2.90;;;12.70;99.90;;;;;;2053441;28;20704;-66
2023/08/28 01:55:45;;;;;;;4.77;2.60;;;12.80;99.90;;;;;;2046599;28;20214;-67
2023/08/28 01:56:48;;;;;;;2.70;2.40;;;12.80;99.90;;;;;;2060661;28;20226;-67
2023/08/28 01:57:49;;;;;;;2.90;2.60;;;12.80;99.90;;;;;;2060735;28;20232;-67
2023/08/28 01:58:55;;;;;;;3.70;2.47;;;12.80;99.90;;;;;;2061228;28;20342;-66
2023/08/28 01:59:56;;;;;;;2.83;2.50;;;12.80;99.90;;;;;;2053204;28;20469;-66
2023/08/28 02:00:57;;;;;;;3.40;2.60;;;12.80;99.90;;;;;;2045289;28;20322;-67
2023/08/28 02:01:57;;;;;;;3.23;2.30;;;12.80;99.90;;;;;;2061003;28;20233;-67
2023/08/28 02:02:58;;;;;;;3.07;2.60;;;12.90;99.90;;;;;;2060990;28;20367;-67
2023/08/28 02:04:00;;;;;;;4.77;2.50;;;12.80;99.90;;;;;;2062268;28;20261;-66
2023/08/28 02:05:01;;;;;;;3.65;2.40;;;12.70;99.90;;;;;;2059974;28;20222;-67
2023/08/28 02:06:02;;;;;;;4.70;2.53;;;12.70;99.90;;;;;;2053029;28;20226;-67
2023/08/28 02:07:03;;;;;;;3.67;2.47;;;12.70;99.90;;;;;;2045301;28;20313;-68
2023/08/28 02:08:05;;;;;;;3.88;2.72;;;12.70;99.90;;;;;;2046012;28;20191;-68
2023/08/28 02:09:05;;;;;;;3.42;2.47;;;12.70;99.90;;;;;;2052856;28;20256;-67
2023/08/28 02:10:07;;;;;;;2.70;2.50;;;12.70;99.90;;;;;;2058838;28;20190;-67
2023/08/28 02:11:08;;;;;;;2.58;2.38;;;12.70;99.90;;;;;;2060995;28;20580;-67
2023/08/28 02:12:08;;;;;;;2.60;2.40;;;12.70;99.90;;;;;;2061982;28;20197;-67
2023/08/28 02:13:09;;;;;;;3.83;2.63;;;12.80;99.90;;;;;;2060736;28;20666;-67
2023/08/28 02:14:10;;;;;;;2.73;2.53;;;12.80;99.90;;;;;;2062296;28;20667;-67
2023/08/28 02:15:10;;;;;;;2.97;2.70;;;12.70;99.90;;;;;;2061195;28;20190;-67
2023/08/28 02:16:11;;;;;;;3.27;2.80;;;12.60;99.90;;;;;;2062187;28;20182;-67
2023/08/28 02:17:12;;;;;;;3.30;2.70;;;12.50;99.90;;;;;;2061610;28;20272;-67
2023/08/28 02:18:12;;;;;;;2.77;2.53;;;12.50;99.90;;;;;;2061120;28;20198;-67
2023/08/28 02:19:13;;;;;;;3.93;2.80;;;12.50;99.90;;;;;;2056071;28;20249;-67
2023/08/28 02:20:14;;;;;;;3.80;2.50;;;12.60;99.90;;;;;;2056273;28;20186;-67
2023/08/28 02:21:14;;;;;;;5.43;2.80;;;12.60;99.90;;;;;;2061687;28;20222;-67
2023/08/28 02:22:19;;;;;;;2.80;2.57;;;12.60;99.90;;;;;;2063304;28;20186;-66
2023/08/28 02:23:19;;;;;;;3.53;2.83;;;12.70;99.90;;;;;;2062143;28;20607;-67
2023/08/28 02:24:20;;;;;;;2.77;2.50;;;12.70;99.90;;;;;;2063670;28;20182;-67
2023/08/28 02:25:23;;;;;;;4.50;2.70;;;12.70;99.90;;;;;;2063196;28;20186;-66
2023/08/28 02:26:24;;;;;;;3.20;2.90;;;12.80;99.90;;;;;;2057858;28;20230;-67
2023/08/28 02:27:25;;;;;;;4.60;2.78;;;12.80;99.90;;;;;;2055795;28;20242;-66
2023/08/28 02:28:26;;;;;;;3.30;2.70;;;12.70;99.90;;;;;;2063574;28;20715;-66
2023/08/28 02:29:27;;;;;;;4.60;2.43;;;12.70;99.90;;;;;;2063785;28;20226;-67
2023/08/28 02:30:27;;;;;;;4.57;2.57;;;12.70;99.90;;;;;;2055033;28;20230;-67
2023/08/28 02:31:28;;;;;;;3.20;2.90;;;12.70;99.90;;;;;;2063175;28;20301;-67
2023/08/28 02:32:29;;;;;;;3.67;2.33;;;12.70;99.90;;;;;;2071581;28;20233;-66
2023/08/28 02:33:29;;;;;;;5.77;2.87;;;12.70;99.90;;;;;;2066826;28;20233;-67
2023/08/28 02:34:30;;;;;;;3.37;2.60;;;12.60;99.90;;;;;;2058107;28;20309;-67
2023/08/28 02:35:31;;;;;;;3.43;2.87;;;12.70;99.90;;;;;;2062966;28;20798;-67
2023/08/28 02:36:32;;;;;;;4.10;2.50;;;12.70;99.90;;;;;;2063269;28;20234;-67
2023/08/28 02:37:32;;;;;;;3.77;2.60;;;12.60;99.90;;;;;;2047233;28;20227;-66
2023/08/28 02:38:33;;;;;;;5.57;2.77;;;12.60;99.90;;;;;;2051000;28;20241;-66
2023/08/28 02:39:34;;;;;;;4.90;2.20;;;12.60;99.90;;;;;;2055295;28;21137;-67
2023/08/28 02:40:37;;;;;;;2.93;1.90;;;12.50;99.90;;;;;;2055335;28;20230;-66
2023/08/28 02:41:37;;;;;;;3.60;2.17;;;12.50;99.90;;;;;;2047001;28;20715;-67
2023/08/28 02:42:38;;;;;;;2.50;2.30;;;12.50;99.90;;;;;;2039363;28;20223;-67
2023/08/28 02:43:39;;;;;;;4.60;2.20;;;12.50;99.90;;;;;;2060950;28;20640;-66
2023/08/28 02:44:39;;;;;;;7.33;2.50;;;12.50;99.90;;;;;;2060977;28;20336;-67
2023/08/28 02:45:41;;;;;;;2.30;2.03;;;12.50;99.90;;;;;;2054710;28;20230;-67
2023/08/28 02:46:41;;;;;;;3.28;2.67;;;12.60;99.90;;;;;;2063380;28;20572;-67
2023/08/28 02:47:42;;;;;;;3.20;2.30;;;12.60;99.90;;;;;;2063953;28;20240;-66
2023/08/28 02:48:43;;;;;;;2.40;2.20;;;12.70;99.90;;;;;;2063753;28;20281;-67
2023/08/28 02:49:43;;;;;;;2.50;2.30;;;12.70;99.90;;;;;;2064101;28;20717;-67
2023/08/28 02:50:49;;;;;;;2.77;2.23;;;12.70;99.90;;;;;;2063410;28;20233;-67
2023/08/28 02:51:50;;;;;;;3.28;2.20;;;12.70;99.90;;;;;;2047978;28;20243;-67
2023/08/28 02:52:50;;;;;;;2.30;2.10;;;12.70;99.90;;;;;;2047050;28;20232;-67
2023/08/28 02:53:51;;;;;;;3.40;2.33;;;12.60;99.90;;;;;;2062841;28;20237;-66
2023/08/28 02:54:53;;;;;;;3.53;2.00;;;12.70;99.90;;;;;;2055758;28;20242;-67
2023/08/28 02:56:22;;;;;;;2.20;2.00;;;12.70;99.90;;;;;;2055318;28;20227;-67
2023/08/28 02:57:23;;;;;;;2.60;2.40;;;12.70;99.90;;;;;;2058194;28;20225;-67
2023/08/28 02:58:24;;;;;;;3.30;2.30;;;12.70;99.90;;;;;;2058080;28;20633;-67
2023/08/28 02:59:24;;;;;;;3.33;2.00;;;12.60;99.90;;;;;;2062477;28;20380;-67
2023/08/28 03:00:25;;;;;;;3.00;2.57;;;12.70;99.90;;;;;;2053275;28;20230;-67
2023/08/28 03:01:26;;;;;;;3.17;2.50;;;12.70;99.90;;;;;;2065798;28;20308;-67
2023/08/28 03:02:27;;;;;;;2.40;2.00;;;12.70;99.90;;;;;;2055138;28;20887;-67
2023/08/28 03:03:28;;;;;;;3.35;2.00;;;12.60;99.90;;;;;;2063563;28;20281;-67
2023/08/28 03:04:28;;;;;;;3.63;2.65;;;12.60;99.90;;;;;;2064028;28;20268;-67
2023/08/28 03:05:29;;;;;;;4.00;2.17;;;12.50;99.90;;;;;;2063388;28;20234;-67
2023/08/28 03:06:37;;;;;;;3.73;2.33;;;12.50;99.90;;;;;;2063191;28;20229;-67
2023/08/28 03:07:39;;;;;;;3.53;2.15;;;12.50;99.90;;;;;;2061831;28;20996;-67
2023/08/28 03:08:39;;;;;;;2.65;2.25;;;12.50;99.90;;;;;;2068605;28;20232;-66
2023/08/28 03:09:40;;;;;;;3.73;2.50;;;12.60;99.90;;;;;;2062832;28;20226;-67
2023/08/28 03:10:41;;;;;;;3.38;2.40;;;12.60;99.90;;;;;;2062636;28;20609;-66
2023/08/28 03:11:42;;;;;;;2.43;2.17;;;12.60;99.90;;;;;;2062971;28;20234;-67
2023/08/28 03:12:43;;;;;;;2.60;2.20;;;12.60;99.90;;;;;;2063309;28;20631;-67
2023/08/28 03:13:43;;;;;;;4.03;2.23;;;12.60;99.90;;;;;;2068035;28;20784;-66
2023/08/28 03:14:44;;;;;;;4.20;2.07;;;12.50;99.90;;;;;;2062907;28;20654;-67
2023/08/28 03:15:45;;;;;;;4.20;2.17;;;12.50;99.90;;;;;;2054858;28;20234;-67
2023/08/28 03:16:45;;;;;;;2.37;2.00;;;12.40;99.90;;;;;;2062860;28;20238;-66
2023/08/28 03:17:46;;;;;;;2.77;2.10;;;12.50;99.90;;;;;;2062500;28;20624;-67
2023/08/28 03:18:47;;;;;;;3.10;2.20;;;12.50;99.90;;;;;;2049607;28;20232;-67
2023/08/28 03:19:48;;;;;;;3.08;1.90;;;12.40;99.90;;;;;;2058263;28;20226;-67
2023/08/28 03:20:49;;;;;;;2.07;1.87;;;12.50;99.90;;;;;;2052367;28;20267;-67
2023/08/28 03:21:50;;;;;;;2.30;1.90;;;12.50;99.90;;;;;;2049016;28;20731;-67
2023/08/28 03:22:50;;;;;;;1.95;1.85;;;12.50;99.90;;;;;;2062835;28;20253;-67
2023/08/28 03:23:52;;;;;;;4.50;2.00;;;12.50;99.90;;;;;;2063017;28;20320;-67
2023/08/28 03:24:52;;;;;;;3.35;1.90;;;12.60;99.90;;;;;;2064046;28;20557;-67
2023/08/28 03:25:53;;;;;;;2.73;2.23;;;12.60;99.90;;;;;;2054903;28;20235;-67
2023/08/28 03:26:54;;;;;;;4.00;2.20;;;12.60;99.90;;;;;;2055154;28;20549;-67
2023/08/28 03:27:55;;;;;;;2.60;2.00;;;12.70;99.90;;;;;;2063525;28;20233;-66
2023/08/28 03:28:56;;;;;;;2.05;1.75;;;12.70;99.90;;;;;;2063617;28;20606;-68
2023/08/28 03:29:56;;;;;;;3.17;2.23;;;12.60;99.90;;;;;;2063825;28;20266;-66
2023/08/28 03:31:01;;;;;;;2.50;1.80;;;12.60;99.90;;;;;;2062235;28;20778;-65
2023/08/28 03:32:02;;;;;;;4.82;1.95;;;12.60;99.90;;;;;;2050085;28;20293;-67
2023/08/28 03:33:03;;;;;;;3.53;2.00;;;12.50;99.90;;;;;;2054613;28;20345;-66
2023/08/28 03:34:04;;;;;;;2.40;1.88;;;12.60;99.90;;;;;;2062629;28;21043;-66
2023/08/28 03:35:06;;;;;;;2.20;1.80;;;12.60;99.90;;;;;;2064056;28;20238;-66
2023/08/28 03:36:07;;;;;;;3.45;1.80;;;12.50;99.90;;;;;;2059648;28;20463;-67
2023/08/28 03:37:08;;;;;;;3.03;1.77;;;12.60;99.90;;;;;;2059888;28;20817;-66
2023/08/28 03:38:09;;;;;;;2.30;2.00;;;12.60;99.90;;;;;;2060263;28;20288;-66
2023/08/28 03:39:09;;;;;;;2.27;1.83;;;12.70;99.90;;;;;;2056276;28;20556;-66
2023/08/28 03:40:11;;;;;;;3.23;1.90;;;12.60;99.90;;;;;;2063682;28;20193;-66
2023/08/28 03:41:11;;;;;;;3.60;1.95;;;12.50;99.90;;;;;;2063349;28;20213;-65
2023/08/28 03:42:12;;;;;;;2.47;1.93;;;12.40;99.90;;;;;;2054506;28;20727;-66
2023/08/28 03:43:13;;;;;;;3.63;1.70;;;12.40;99.90;;;;;;2062678;28;20228;-66
2023/08/28 03:44:14;;;;;;;3.38;1.70;;;12.40;99.90;;;;;;2066948;28;20208;-66
2023/08/28 03:45:15;;;;;;;3.37;1.60;;;12.40;99.90;;;;;;2062343;28;20689;-66
2023/08/28 03:46:15;;;;;;;3.20;1.60;;;12.40;99.90;;;;;;2062588;28;20253;-67
2023/08/28 03:47:16;;;;;;;2.70;1.60;;;12.40;99.90;;;;;;2051876;28;20744;-66
2023/08/28 03:48:17;;;;;;;2.37;1.67;;;12.40;99.90;;;;;;2055628;28;20208;-66
2023/08/28 03:49:17;;;;;;;2.13;1.70;;;12.50;99.90;;;;;;2063467;28;20178;-66
2023/08/28 03:50:18;;;;;;;3.20;1.73;;;12.50;99.90;;;;;;2063808;28;20186;-66
2023/08/28 03:51:19;;;;;;;1.95;1.73;;;12.60;99.90;;;;;;2063148;28;20277;-66
2023/08/28 03:52:20;;;;;;;2.97;1.70;;;12.70;99.90;;;;;;2063532;28;20205;-65
2023/08/28 03:53:21;;;;;;;1.90;1.67;;;12.60;99.90;;;;;;2063831;28;20186;-66
2023/08/28 03:54:21;;;;;;;2.10;1.80;;;12.50;99.90;;;;;;2063693;28;20302;-66
2023/08/28 03:55:23;;;;;;;2.53;2.20;;;12.60;99.90;;;;;;2062874;28;20238;-65
2023/08/28 03:56:24;;;;;;;2.17;1.88;;;12.60;99.90;;;;;;2073908;28;20236;-66
2023/08/28 03:57:25;;;;;;;5.40;1.70;;;12.50;99.90;;;;;;2070880;28;20234;-66
2023/08/28 03:58:26;;;;;;;3.90;1.97;;;12.50;99.90;;;;;;2062934;28;21012;-65
2023/08/28 03:59:27;;;;;;;3.10;1.75;;;12.50;99.90;;;;;;2063913;28;20280;-66
2023/08/28 04:00:28;;;;;;;1.57;1.40;;;12.40;99.90;;;;;;2062576;28;20293;-66
2023/08/28 04:01:28;;;;;;;3.20;1.63;;;12.40;99.90;;;;;;2054000;28;20235;-66
2023/08/28 04:02:29;;;;;;;2.30;1.83;;;12.30;99.90;;;;;;2054905;28;20234;-66
2023/08/28 04:03:30;;;;;;;2.00;1.80;;;12.20;99.90;;;;;;2060654;28;20297;-66
2023/08/28 04:04:31;;;;;;;2.42;1.63;;;12.30;99.90;;;;;;2064106;28;20313;-66
2023/08/28 04:05:38;;;;;;;3.40;2.00;;;12.30;99.90;;;;;;2064669;28;20233;-66
2023/08/28 04:06:38;;;;;;;2.95;1.58;;;12.30;99.90;;;;;;2064056;28;20655;-66
2023/08/28 04:07:40;;;;;;;4.23;2.00;;;12.20;99.90;;;;;;2062765;28;20245;-66
2023/08/28 04:08:41;;;;;;;2.55;2.35;;;12.30;99.90;;;;;;2068304;28;20231;-66
2023/08/28 04:09:41;;;;;;;2.10;1.50;;;12.30;99.90;;;;;;2068830;28;20859;-66
2023/08/28 04:10:42;;;;;;;1.87;1.67;;;12.20;99.90;;;;;;2061773;28;20238;-66
2023/08/28 04:11:43;;;;;;;2.00;1.80;;;12.20;99.90;;;;;;2063040;28;20241;-66
2023/08/28 04:12:44;;;;;;;2.37;1.83;;;12.30;99.90;;;;;;2062244;28;20237;-66
2023/08/28 04:13:46;;;;;;;3.43;1.77;;;12.30;99.90;;;;;;2062703;28;20280;-66
2023/08/28 04:14:47;;;;;;;2.35;1.60;;;12.30;99.90;;;;;;2063165;28;20225;-66
2023/08/28 04:15:48;;;;;;;2.53;1.50;;;12.30;99.90;;;;;;2063014;28;20269;-66
2023/08/28 04:16:53;;;;;;;2.40;2.10;;;12.30;99.90;;;;;;2063238;28;20230;-65
2023/08/28 04:17:54;;;;;;;4.57;1.80;;;12.30;99.90;;;;;;2062364;28;20226;-65
2023/08/28 04:18:55;;;;;;;2.10;1.80;;;12.30;99.90;;;;;;2062614;28;20233;-65
2023/08/28 04:19:56;;;;;;;2.25;1.70;;;12.40;99.90;;;;;;2059679;28;20722;-66
2023/08/28 04:20:57;;;;;;;2.22;1.70;;;12.40;99.90;;;;;;2061823;28;20226;-66
2023/08/28 04:21:58;;;;;;;1.83;1.63;;;12.40;99.90;;;;;;2063248;28;20700;-65
2023/08/28 04:22:58;;;;;;;2.37;1.80;;;12.40;99.90;;;;;;2062208;28;20308;-66
2023/08/28 04:23:59;;;;;;;1.93;1.60;;;12.40;99.90;;;;;;2062312;28;20275;-66
2023/08/28 04:25:00;;;;;;;2.83;1.60;;;12.40;99.90;;;;;;2069035;28;20253;-66
2023/08/28 04:26:01;;;;;;;2.85;1.70;;;12.40;99.90;;;;;;2070639;28;20312;-65
2023/08/28 04:27:02;;;;;;;2.63;1.70;;;12.40;99.90;;;;;;2061437;28;20218;-67
2023/08/28 04:28:03;;;;;;;1.87;1.60;;;12.40;99.90;;;;;;2061158;28;20182;-66
2023/08/28 04:29:04;;;;;;;1.65;1.55;;;12.40;99.90;;;;;;2063213;28;20186;-66
2023/08/28 04:30:08;;;;;;;2.97;1.73;;;12.40;99.90;;;;;;2063049;28;20205;-66
2023/08/28 04:31:09;;;;;;;1.90;1.52;;;12.50;99.90;;;;;;2062790;28;20221;-66
2023/08/28 04:32:10;;;;;;;2.70;1.77;;;12.50;99.90;;;;;;2062871;28;20193;-66
2023/08/28 04:33:11;;;;;;;2.85;1.80;;;12.50;99.90;;;;;;2062436;28;20574;-66
2023/08/28 04:34:12;;;;;;;2.37;1.57;;;12.40;99.90;;;;;;2060634;28;20193;-66
2023/08/28 04:35:12;;;;;;;3.73;1.50;;;12.40;99.90;;;;;;2062845;28;20194;-66
2023/08/28 04:36:13;;;;;;;1.83;1.50;;;12.40;99.90;;;;;;2065860;28;20187;-66
2023/08/28 04:37:14;;;;;;;2.37;1.80;;;12.40;99.90;;;;;;2063846;28;20224;-66
2023/08/28 04:38:14;;;;;;;1.90;1.70;;;12.30;99.90;;;;;;2062344;28;20186;-66
2023/08/28 04:39:15;;;;;;;2.60;1.70;;;12.30;99.90;;;;;;2063218;28;20208;-66
2023/08/28 04:40:16;;;;;;;2.57;1.60;;;12.30;99.90;;;;;;2062789;28;20186;-66
2023/08/28 04:41:16;;;;;;;3.17;1.77;;;12.30;99.90;;;;;;2061925;28;20256;-66
2023/08/28 04:42:17;;;;;;;2.70;1.80;;;12.30;99.90;;;;;;2050644;28;20190;-66
2023/08/28 04:43:18;;;;;;;1.80;1.70;;;12.40;99.90;;;;;;2057346;28;20210;-66
2023/08/28 04:44:19;;;;;;;1.87;1.67;;;12.50;99.90;;;;;;2059910;28;20952;-66
2023/08/28 04:45:20;;;;;;;2.80;1.50;;;12.50;99.90;;;;;;2061644;28;20190;-66
2023/08/28 04:46:22;;;;;;;4.60;1.80;;;12.50;99.90;;;;;;2054319;28;20207;-66
2023/08/28 04:47:22;;;;;;;2.58;1.70;;;12.50;99.90;;;;;;2054684;28;20348;-66
2023/08/28 04:48:23;;;;;;;2.00;1.60;;;12.60;99.90;;;;;;2062487;28;20230;-66
2023/08/28 04:49:24;;;;;;;2.03;1.67;;;12.70;99.90;;;;;;2062421;28;20230;-66
2023/08/28 04:50:24;;;;;;;2.67;1.70;;;12.70;99.90;;;;;;2062306;28;20850;-66
2023/08/28 04:51:25;;;;;;;2.97;1.70;;;12.70;99.90;;;;;;2061770;28;20229;-66
2023/08/28 04:52:26;;;;;;;5.05;1.60;;;12.50;99.90;;;;;;2053864;28;20719;-66
2023/08/28 04:53:27;;;;;;;2.37;1.57;;;12.50;99.90;;;;;;2062270;28;20226;-66
2023/08/28 04:54:27;;;;;;;6.20;1.90;;;12.50;99.90;;;;;;2063378;28;20713;-66
2023/08/28 04:55:28;;;;;;;3.20;1.67;;;12.50;99.90;;;;;;2063140;28;20218;-66
2023/08/28 04:56:29;;;;;;;3.77;2.00;;;12.40;99.90;;;;;;2062398;28;20261;-67
2023/08/28 04:57:32;;;;;;;3.17;1.60;;;12.40;99.90;;;;;;2054188;28;20338;-65
2023/08/28 04:58:33;;;;;;;2.20;2.00;;;12.30;99.90;;;;;;2049544;28;20227;-65
2023/08/28 04:59:34;;;;;;;2.00;1.67;;;12.30;99.90;;;;;;2057877;28;20241;-65
2023/08/28 05:00:35;;;;;;;3.17;1.83;;;12.40;99.90;;;;;;2062888;28;20507;-65
2023/08/28 05:01:36;;;;;;;4.40;1.53;;;12.40;99.90;;;;;;2062262;28;20273;-65
2023/08/28 05:02:37;;;;;;;3.27;1.70;;;12.50;99.90;;;;;;2062510;28;20324;-65
2023/08/28 05:03:38;;;;;;;4.22;1.70;;;12.50;99.90;;;;;;2065454;28;20276;-65
2023/08/28 05:04:39;;;;;;;3.85;1.85;;;12.40;99.90;;;;;;2065316;28;20236;-65
2023/08/28 05:05:39;;;;;;;3.10;1.70;;;12.50;99.90;;;;;;2061866;28;20630;-65
2023/08/28 05:06:40;;;;;;;2.17;1.47;;;12.40;99.90;;;;;;2054278;28;20254;-65
2023/08/28 05:07:41;;;;;;;2.00;1.80;;;12.50;99.90;;;;;;2061799;28;20699;-65
2023/08/28 05:08:42;;;;;;;2.67;1.80;;;12.50;99.90;;;;;;2062519;28;20257;-65
2023/08/28 05:09:42;;;;;;;2.03;1.63;;;12.50;99.90;;;;;;2060721;28;20570;-65
2023/08/28 05:10:43;;;;;;;2.43;1.83;;;12.60;99.90;;;;;;2050970;28;20268;-65
2023/08/28 05:11:44;;;;;;;2.67;2.10;;;12.60;99.90;;;;;;2044288;28;20277;-65
2023/08/28 05:12:44;;;;;;;3.07;1.93;;;12.60;99.90;;;;;;2054384;28;20248;-65
2023/08/28 05:13:45;;;;;;;2.50;1.70;;;12.50;99.90;;;;;;2062828;28;20706;-65
2023/08/28 05:14:46;;;;;;;1.73;1.63;;;12.60;99.90;;;;;;2062805;28;20238;-65
2023/08/28 05:15:46;;;;;;;2.73;1.70;;;12.60;99.90;;;;;;2062622;28;20934;-65
2023/08/28 05:16:47;;;;;;;2.37;1.93;;;12.70;99.90;;;;;;2062555;28;20237;-65
2023/08/28 05:17:48;;;;;;;3.20;1.80;;;12.60;99.90;;;;;;2062113;28;20225;-65
2023/08/28 05:18:49;;;;;;;2.17;1.90;;;12.60;99.90;;;;;;2054136;28;20226;-66
2023/08/28 05:19:49;;;;;;;3.23;1.90;;;12.60;99.90;;;;;;2053189;28;20317;-65
2023/08/28 05:20:50;;;;;;;3.67;2.00;;;12.70;99.90;;;;;;2061929;28;20234;-65
2023/08/28 05:21:51;;;;;;;3.40;1.70;;;12.70;99.90;;;;;;2069265;28;20264;-65
2023/08/28 05:22:51;;;;;;;2.90;1.90;;;12.80;99.90;;;;;;2070256;28;20253;-65
2023/08/28 05:23:52;;;;;;;2.13;1.90;;;12.90;99.90;;;;;;2062395;28;20233;-65